Yanchi, China
Current Conditions -  °F | °C
As of 12:00 AM on Sunday 23 Nov 2014 (Local Time) from ZLLL Reporting Station
Clear Clear  
Wind Chill: 28°   Ceiling: Unl
Heat Index: 28°   Visibility: 6mi
Dew Point: 19°   Wind: 0mph
Humidity: 69%   Direction: NA
Pressure: 30.24"   Gusts: NA
Location:  37.78°N, 107.4°E
Report Text: ZLLL 221600Z 00000MPS CAVOK M02/M07 Q1024 NOSIG
Loading
Personal Weather Stations






























Interactive Weather Map New forecast layout! Learn more

10-Day Weather Forecast

Advertisements
Track Severe Weather on mobile